This is the latest recevied weather packets stored in our database for station/object LU3HGB-WX. If no packets are shown the sender has not sent any weather packets the latest 10 day(s).
| Time | Temp. | Humidity | Pressure | Rain* | Wind** | Luminosity | Snow |
|---|---|---|---|---|---|---|---|
| 1788528163 | 11.67° C | 43% | 1021 hPa | 0 mm | - | 306 W/m² | - |
| 1788527860 | 11.11° C | 48% | 1021 hPa | 0 mm | - | 317 W/m² | - |
| 1788527560 | 11.11° C | 47% | 1021 hPa | 0 mm | - | 274 W/m² | - |
| 1788527260 | 10.56° C | 48% | 1021 hPa | 0 mm | - | 278 W/m² | - |
| 1788526960 | 10° C | 48% | 1021 hPa | 0 mm | - | 268 W/m² | - |
| 1788526660 | 10° C | 50% | 1021 hPa | 0 mm | - | 262 W/m² | - |
| 1788526363 | 10° C | 50% | 1021 hPa | 0 mm | - | 255 W/m² | - |
| 1788525771 | 9.44° C | 52% | 1021 hPa | 0 mm | - | 218 W/m² | - |
| 1788525459 | 9.44° C | 52% | 1021 hPa | 0 mm | - | 238 W/m² | - |
| 1788525159 | 9.44° C | 51% | 1021 hPa | 0 mm | - | 217 W/m² | - |
| 1788524860 | 9.44° C | 52% | 1021 hPa | 0 mm | - | 209 W/m² | - |
| 1788524560 | 9.44° C | 48% | 1021 hPa | 0 mm | - | 181 W/m² | - |
| 1788524259 | 10° C | 46% | 1021 hPa | 0 mm | - | 160 W/m² | - |
| 1788523960 | 10° C | 47% | 1021 hPa | 0 mm | - | 173 W/m² | - |
| 1788523660 | 9.44° C | 46% | 1021 hPa | 0 mm | - | 280 W/m² | - |
| 1788523360 | 8.89° C | 46% | 1021 hPa | 0 mm | - | 197 W/m² | - |
| 1788523060 | 7.78° C | 47% | 1021 hPa | 0 mm | - | 216 W/m² | - |
| 1788522760 | 6.67° C | 55% | 1021 hPa | 0 mm | - | 258 W/m² | - |
| 1788522460 | 5.56° C | 63% | 1021 hPa | 0 mm | - | 244 W/m² | - |
| 1788522160 | 4.44° C | 69% | 1021 hPa | 0 mm | - | 202 W/m² | - |
| 1788521859 | 3.89° C | 73% | 1021 hPa | 0 mm | - | 114 W/m² | - |
| 1788521559 | 3.89° C | 79% | 1021 hPa | 0 mm | - | 94 W/m² | - |
| 1788521259 | 3.33° C | 78% | 1021 hPa | 0 mm | - | 83 W/m² | - |
| 1788520959 | 2.78° C | 78% | 1021 hPa | 0 mm | - | 74 W/m² | - |
| 1788520659 | 2.78° C | 78% | 1021 hPa | 0 mm | - | 61 W/m² | - |
* Rain latest hour (hover to see other rain measurements)
** Current wind speed in m/s (hover to see current wind gust speed)